Time;durP1;ratioP1;P1;durP2;ratioP2;P2;SDS_P1;SDS_P2;PMS_P1;PMS_P2;Temp;Humidity;BMP_temperature;BMP_pressure;BME280_temperature;BME280_humidity;BME280_pressure;Samples;Min_cycle;Max_cycle;Signal;HPM_P1;HPM_P2
2022/03/17 00:01:03;;;;;;;12.00;5.40;;;;;;;-1.39;43.35;102201.64;123600;1102;104347;-82
2022/03/17 00:03:36;;;;;;;15.90;5.63;;;;;;;-1.46;44.89;102194.00;123464;1099;104275;-83
2022/03/17 00:06:13;;;;;;;15.70;5.53;;;;;;;-1.48;44.95;102201.55;123381;1100;104472;-83
2022/03/17 00:08:47;;;;;;;16.43;5.63;;;;;;;-1.52;44.77;102203.61;123392;1102;104399;-84
2022/03/17 00:11:20;;;;;;;13.62;4.80;;;;;;;-1.55;44.89;102219.63;123346;1099;104344;-83
2022/03/17 00:13:53;;;;;;;17.63;5.83;;;;;;;-1.59;44.83;102214.90;123338;1099;104699;-83
2022/03/17 00:16:31;;;;;;;15.57;6.00;;;;;;;-1.63;45.28;102216.19;123433;1099;104326;-82
2022/03/17 00:19:07;;;;;;;18.10;5.95;;;;;;;-1.66;43.80;102222.67;123371;1102;104331;-83
2022/03/17 00:21:41;;;;;;;16.80;5.50;;;;;;;-1.68;45.27;102222.50;123481;1101;104325;-83
2022/03/17 00:24:14;;;;;;;;;;;;;;;-1.69;44.44;102222.33;123518;1100;104255;-84
2022/03/17 00:26:49;;;;;;;14.67;5.50;;;;;;;-1.71;44.08;102229.87;123463;1102;104284;-83
2022/03/17 00:29:23;;;;;;;17.30;5.70;;;;;;;-1.73;44.18;102222.71;123533;1102;104651;-83
2022/03/17 00:31:55;;;;;;;;;;;;;;;-1.73;44.31;102231.38;123620;1099;104744;-83
2022/03/17 00:34:30;;;;;;;16.30;5.50;;;;;;;-1.71;45.21;102227.30;123679;1099;104294;-83
2022/03/17 00:37:03;;;;;;;13.03;4.80;;;;;;;-1.69;45.44;102228.38;123437;1101;104353;-83
2022/03/17 00:39:39;;;;;;;18.37;5.63;;;;;;;-1.72;44.13;102228.03;123403;1102;104341;-84
2022/03/17 00:42:12;;;;;;;14.03;5.63;;;;;;;-1.69;44.40;102232.63;123396;1102;104625;-82
2022/03/17 00:44:47;;;;;;;10.83;4.40;;;;;;;-1.74;45.00;102234.67;123514;1102;104280;-83
2022/03/17 00:47:22;;;;;;;14.47;5.40;;;;;;;-1.79;45.00;102242.61;123326;1102;104373;-83
2022/03/17 00:49:56;;;;;;;14.77;5.77;;;;;;;-1.81;44.66;102237.29;123464;1102;104326;-84
2022/03/17 00:52:32;;;;;;;17.10;5.75;;;;;;;-1.83;44.70;102243.93;123558;1102;104354;-84
2022/03/17 00:55:07;;;;;;;16.40;5.40;;;;;;;-1.86;44.01;102241.91;123457;1099;104293;-83
2022/03/17 00:57:41;;;;;;;12.00;4.90;;;;;;;-1.91;44.04;102247.30;123455;1099;104197;-83
2022/03/17 01:00:14;;;;;;;;;;;;;;;-1.99;44.96;102252.48;123428;1099;104392;-83
2022/03/17 01:02:50;;;;;;;14.10;5.40;;;;;;;-2.10;43.81;102250.35;123426;1102;104329;-83
2022/03/17 01:05:25;;;;;;;15.90;5.57;;;;;;;-2.20;44.81;102250.97;123514;1102;104325;-83
2022/03/17 01:08:00;;;;;;;15.07;5.83;;;;;;;-2.28;44.36;102249.14;123753;1099;104781;-83
2022/03/17 01:10:33;;;;;;;14.10;5.53;;;;;;;-2.31;44.96;102246.22;123315;1102;104367;-83
2022/03/17 01:13:07;;;;;;;8.65;3.90;;;;;;;-2.36;43.99;102247.36;123377;1102;104360;-83
2022/03/17 01:15:39;;;;;;;;;;;;;;;-2.41;45.02;102253.64;123505;1099;104328;-84
2022/03/17 01:18:13;;;;;;;13.07;4.63;;;;;;;-2.47;45.05;102252.93;123431;1099;104303;-84
2022/03/17 01:20:50;;;;;;;13.63;4.97;;;;;;;-2.48;44.44;102258.80;123447;1100;104357;-83
2022/03/17 01:23:24;;;;;;;11.87;4.67;;;;;;;-2.47;43.93;102260.64;123387;1098;104370;-83
2022/03/17 01:25:57;;;;;;;12.90;4.50;;;;;;;-2.44;44.82;102266.14;123407;1099;104287;-84
2022/03/17 01:28:30;;;;;;;12.33;4.50;;;;;;;-2.48;45.27;102271.65;123427;1102;104354;-83
2022/03/17 01:31:05;;;;;;;11.17;4.87;;;;;;;-2.50;44.72;102273.14;123351;1102;104313;-83
2022/03/17 01:33:39;;;;;;;11.85;4.95;;;;;;;-2.55;44.28;102276.08;123435;1101;104325;-84
2022/03/17 01:36:12;;;;;;;13.27;4.57;;;;;;;-2.59;45.26;102281.59;123381;1102;104398;-84
2022/03/17 01:38:46;;;;;;;10.20;4.37;;;;;;;-2.63;45.00;102284.56;123375;1099;104172;-84
2022/03/17 01:41:20;;;;;;;10.43;4.30;;;;;;;-2.63;45.30;102288.80;123278;1102;104363;-83
2022/03/17 01:43:53;;;;;;;11.20;4.63;;;;;;;-2.61;44.59;102283.07;123344;1099;104251;-82
2022/03/17 01:46:28;;;;;;;;;;;;;;;-2.62;45.45;102285.46;123521;1102;104350;-83
2022/03/17 01:49:01;;;;;;;9.43;3.90;;;;;;;-2.66;44.75;102284.20;123384;1099;104326;-83
2022/03/17 01:51:36;;;;;;;16.52;4.67;;;;;;;-2.68;45.35;102284.75;123391;1102;104291;-82
2022/03/17 01:54:09;;;;;;;12.53;4.83;;;;;;;-2.71;45.34;102283.66;123270;1100;104271;-83
2022/03/17 01:56:44;;;;;;;12.53;5.17;;;;;;;-2.74;44.93;102283.30;123390;1099;104313;-83
2022/03/17 01:59:21;;;;;;;11.00;4.37;;;;;;;-2.72;45.51;102288.62;123368;1102;104328;-83
2022/03/17 02:01:56;;;;;;;10.90;4.37;;;;;;;-2.74;45.15;102287.53;123407;1099;104982;-83
2022/03/17 02:04:30;;;;;;;11.70;4.53;;;;;;;-2.76;45.19;102277.08;123319;1100;104746;-82
2022/03/17 02:07:05;;;;;;;12.00;4.62;;;;;;;-2.74;46.06;102285.87;123545;1099;104310;-83
2022/03/17 02:09:40;;;;;;;11.07;4.70;;;;;;;-2.78;45.03;102287.90;123426;1102;104320;-84
2022/03/17 02:15:05;;;;;;;13.13;4.70;;;;;;;-2.81;45.45;102292.68;123374;1099;104383;-84
2022/03/17 02:17:40;;;;;;;13.83;4.67;;;;;;;-2.83;45.78;102289.92;123342;1099;104329;-84
2022/03/17 02:20:18;;;;;;;12.40;4.50;;;;;;;-2.85;45.44;102306.83;123354;1099;104325;-84
2022/03/17 02:22:53;;;;;;;9.93;4.30;;;;;;;-2.83;45.64;102309.58;123489;1099;104732;-83
2022/03/17 02:25:35;;;;;;;12.27;4.80;;;;;;;-2.84;46.32;102312.87;123374;1102;104275;-84
2022/03/17 02:28:12;;;;;;;14.47;5.23;;;;;;;-2.90;45.95;102313.98;123378;1102;104386;-83
2022/03/17 02:30:45;;;;;;;11.40;4.80;;;;;;;-2.94;45.68;102321.15;123396;1102;104395;-83
2022/03/17 02:33:19;;;;;;;12.50;5.00;;;;;;;-2.98;45.73;102324.98;123420;1102;104361;-83
2022/03/17 02:35:53;;;;;;;13.57;4.83;;;;;;;-3.03;45.69;102323.53;123319;1102;104319;-83
2022/03/17 02:38:29;;;;;;;11.50;5.50;;;;;;;-3.04;45.82;102323.34;123313;1099;104271;-82
2022/03/17 02:41:03;;;;;;;11.10;4.85;;;;;;;-3.07;45.65;102331.59;123363;1102;104293;-83
2022/03/17 02:43:36;;;;;;;12.63;5.20;;;;;;;-3.09;45.64;102333.98;123450;1100;104329;-83
2022/03/17 02:46:12;;;;;;;15.03;4.90;;;;;;;-3.11;46.22;102331.98;123652;1099;104220;-83
2022/03/17 02:48:48;;;;;;;14.40;5.87;;;;;;;-3.13;46.26;102335.99;123889;1101;104373;-83
2022/03/17 02:51:22;;;;;;;18.27;6.67;;;;;;;-3.18;46.59;102338.05;123823;1102;104683;-83
2022/03/17 02:53:56;;;;;;;18.30;6.27;;;;;;;-3.21;45.89;102340.25;123810;1102;104267;-83
2022/03/17 02:56:33;;;;;;;19.93;6.70;;;;;;;-3.24;46.18;102342.44;123880;1099;104332;-83
2022/03/17 02:59:07;;;;;;;20.93;6.83;;;;;;;-3.26;46.80;102334.56;124066;1102;104281;-83
2022/03/17 03:01:41;;;;;;;18.40;7.27;;;;;;;-3.23;46.02;102343.35;123555;1100;104319;-83
2022/03/17 03:04:16;;;;;;;18.63;6.60;;;;;;;-3.21;46.86;102352.14;123365;1099;104226;-83
2022/03/17 03:06:50;;;;;;;19.23;6.73;;;;;;;-3.25;46.84;102356.00;123376;1102;104468;-83
2022/03/17 03:09:24;;;;;;;18.97;6.87;;;;;;;-3.30;46.77;102352.88;123416;1100;104366;-83
2022/03/17 03:11:58;;;;;;;18.70;6.92;;;;;;;-3.30;47.13;102352.88;123377;1099;104223;-83
2022/03/17 03:14:35;;;;;;;19.00;6.78;;;;;;;-3.36;47.23;102353.80;123353;1102;104358;-83
2022/03/17 03:17:09;;;;;;;19.37;6.87;;;;;;;-3.42;46.95;102353.97;123448;1099;104511;-82
2022/03/17 03:19:41;;;;;;;;;;;;;;;-3.49;47.28;102359.08;123408;1102;104799;-83
2022/03/17 03:22:18;;;;;;;18.30;6.33;;;;;;;-3.54;47.12;102362.74;123353;1099;104429;-83
2022/03/17 03:24:52;;;;;;;15.77;5.93;;;;;;;-3.59;46.55;102364.75;123386;1102;104284;-82
2022/03/17 03:27:27;;;;;;;15.03;5.70;;;;;;;-3.63;47.44;102365.09;123292;1102;104267;-83
2022/03/17 03:30:03;;;;;;;16.70;6.20;;;;;;;-3.67;47.26;102357.77;123308;1099;104348;-82
2022/03/17 03:32:37;;;;;;;15.93;6.20;;;;;;;-3.72;47.58;102367.47;123356;1102;104368;-82
2022/03/17 03:37:58;;;;;;;15.87;5.33;;;;;;;-3.78;47.69;102376.08;123601;1099;104357;-83
2022/03/17 03:40:33;;;;;;;11.97;5.37;;;;;;;-3.81;47.53;102377.51;123586;1102;104377;-83
2022/03/17 03:43:07;;;;;;;22.63;8.00;;;;;;;-3.82;47.48;102385.02;123307;1099;104208;-83
2022/03/17 03:45:41;;;;;;;23.92;8.85;;;;;;;-3.81;47.62;102376.61;123363;1099;104309;-83
2022/03/17 03:48:15;;;;;;;21.60;8.80;;;;;;;-3.83;47.50;102384.11;123281;1098;104273;-82
2022/03/17 03:50:48;;;;;;;21.13;8.87;;;;;;;-3.86;47.68;102381.17;123300;1102;104355;-82
2022/03/17 03:53:22;;;;;;;25.30;10.10;;;;;;;-3.89;47.81;102388.48;123340;1099;104306;-83
2022/03/17 03:55:56;;;;;;;21.70;8.70;;;;;;;-3.91;47.69;102386.45;123464;1099;104242;-82
2022/03/17 03:58:30;;;;;;;20.33;7.40;;;;;;;-3.92;48.02;102387.20;123391;1099;104316;-83
2022/03/17 04:01:07;;;;;;;22.87;8.10;;;;;;;-3.90;47.87;102390.86;123431;1099;104358;-84
2022/03/17 04:03:44;;;;;;;24.47;9.23;;;;;;;-3.91;47.89;102389.02;123565;1102;104380;-83
2022/03/17 04:06:18;;;;;;;22.60;8.07;;;;;;;-3.92;48.17;102397.45;123586;1099;104379;-83
2022/03/17 04:08:53;;;;;;;23.70;8.50;;;;;;;-3.94;47.83;102398.89;123665;1099;104418;-81
2022/03/17 04:11:27;;;;;;;23.53;7.20;;;;;;;-3.97;47.88;102400.36;123667;1099;104517;-82
2022/03/17 04:14:02;;;;;;;20.90;7.10;;;;;;;-3.98;48.02;102403.64;123607;1099;104344;-83
2022/03/17 04:16:37;;;;;;;19.40;7.42;;;;;;;-3.97;48.42;102407.15;123515;1099;104242;-83
2022/03/17 04:19:12;;;;;;;17.53;6.17;;;;;;;-3.97;48.22;102405.48;123674;1100;104597;-83
2022/03/17 04:21:47;;;;;;;16.53;6.90;;;;;;;-3.95;48.21;102404.77;123603;1102;104255;-83
2022/03/17 04:24:22;;;;;;;20.30;6.87;;;;;;;-3.95;48.25;102413.37;123682;1099;104373;-83
2022/03/17 04:26:57;;;;;;;20.70;7.47;;;;;;;-3.94;48.27;102411.72;123744;1099;104727;-83
2022/03/17 04:29:30;;;;;;;25.43;8.27;;;;;;;-3.93;48.11;102408.44;123649;1102;104268;-83
2022/03/17 04:32:04;;;;;;;20.50;8.90;;;;;;;-3.90;48.33;102416.51;123455;1102;104438;-83
2022/03/17 04:34:38;;;;;;;19.37;7.13;;;;;;;-3.90;48.76;102414.85;123363;1099;104315;-83
2022/03/17 04:37:12;;;;;;;16.12;6.20;;;;;;;-3.90;49.18;102421.64;123416;1099;104322;-83
2022/03/17 04:39:46;;;;;;;20.87;8.33;;;;;;;-3.91;48.67;102425.86;123313;1101;104226;-83
2022/03/17 04:42:17;;;;;;;;;;;;;;;-3.92;50.17;102423.11;123413;1102;104363;-83
2022/03/17 04:44:51;;;;;;;22.03;9.20;;;;;;;-3.91;49.32;102436.13;123753;1099;104268;-83
2022/03/17 04:47:24;;;;;;;22.82;8.35;;;;;;;-3.90;48.64;102435.38;123789;1102;104277;-81
2022/03/17 04:49:57;;;;;;;19.63;7.67;;;;;;;-3.89;48.90;102444.91;124079;1099;104385;-82
2022/03/17 04:55:32;;;;;;;20.27;7.93;;;;;;;-3.87;49.60;102457.93;124002;1102;104504;-82
2022/03/17 04:58:06;;;;;;;18.53;7.53;;;;;;;-3.87;49.61;102463.06;123964;1102;104245;-81
2022/03/17 05:00:39;;;;;;;18.30;7.93;;;;;;;-3.84;49.40;102466.01;123998;1099;104220;-82
2022/03/17 05:03:12;;;;;;;22.83;8.13;;;;;;;-3.82;49.51;102462.92;123890;1099;104421;-82
2022/03/17 05:05:45;;;;;;;22.52;8.40;;;;;;;-3.76;49.39;102475.56;123486;1102;104258;-82
2022/03/17 05:08:17;;;;;;;19.50;7.60;;;;;;;-3.70;49.42;102463.50;123431;1099;104289;-82
2022/03/17 05:10:52;;;;;;;18.93;7.90;;;;;;;-3.65;49.47;102472.67;123410;1102;104297;-81
2022/03/17 05:13:24;;;;;;;19.90;7.35;;;;;;;-3.58;50.17;102465.73;123726;1102;104332;-82
2022/03/17 05:15:57;;;;;;;19.57;7.40;;;;;;;-3.58;49.95;102471.81;123538;1102;104344;-81
2022/03/17 05:18:29;;;;;;;19.17;8.20;;;;;;;-3.58;49.67;102469.25;123812;1099;104329;-81
2022/03/17 05:21:03;;;;;;;20.50;7.87;;;;;;;-3.56;49.70;102474.56;123993;1099;104242;-83
2022/03/17 05:23:38;;;;;;;22.90;9.63;;;;;;;-3.50;49.92;102483.02;124140;1102;104293;-81
2022/03/17 05:26:10;;;;;;;24.73;10.00;;;;;;;-3.46;49.66;102480.09;124079;1099;104271;-81
2022/03/17 05:28:42;;;;;;;22.43;9.10;;;;;;;-3.42;51.22;102484.88;123964;1099;104730;-81
2022/03/17 05:31:14;;;;;;;23.27;8.97;;;;;;;-3.37;50.09;102483.78;123827;1102;104596;-81
2022/03/17 05:33:46;;;;;;;20.77;7.73;;;;;;;-3.30;50.21;102483.83;124183;1102;104312;-80
2022/03/17 05:36:19;;;;;;;25.77;7.90;;;;;;;-3.25;50.34;102480.16;123872;1099;104347;-80
2022/03/17 05:38:51;;;;;;;28.00;7.63;;;;;;;-3.19;49.95;102474.86;123897;1099;104203;-80
2022/03/17 05:41:24;;;;;;;21.93;7.93;;;;;;;-3.14;50.24;102480.56;124105;1099;104386;-80
2022/03/17 05:43:58;;;;;;;21.35;8.05;;;;;;;-3.08;50.93;102491.59;124353;1102;104203;-79
2022/03/17 05:46:31;;;;;;;18.67;7.70;;;;;;;-3.01;50.98;102489.02;124277;1099;104158;-79
2022/03/17 05:49:04;;;;;;;24.53;9.00;;;;;;;-2.95;51.08;102489.76;124299;1102;104169;-81
2022/03/17 05:51:40;;;;;;;21.33;7.97;;;;;;;-2.86;51.26;102487.40;124779;1102;104321;-81
2022/03/17 05:54:26;;;;;;;22.87;8.70;;;;;;;-2.77;50.88;102496.22;124691;1102;104175;-81
2022/03/17 05:57:00;;;;;;;24.47;8.80;;;;;;;-2.69;50.90;102481.73;124661;1099;104277;-81
2022/03/17 05:59:41;;;;;;;22.73;7.70;;;;;;;-2.58;50.69;102485.59;124504;1102;104350;-81
2022/03/17 06:02:18;;;;;;;21.93;8.07;;;;;;;-2.53;50.80;102477.67;124824;1099;104297;-82
2022/03/17 06:04:54;;;;;;;23.83;8.30;;;;;;;-2.46;51.11;102486.12;125296;1102;104255;-82
2022/03/17 06:07:45;;;;;;;25.50;8.90;;;;;;;-2.36;50.65;102495.11;125420;1102;104310;-81
2022/03/17 06:14:06;;;;;;;29.43;10.97;;;;;;;-2.06;51.75;102496.00;125838;1102;102481;-83
2022/03/17 06:16:47;;;;;;;23.77;8.63;;;;;;;-1.93;51.58;102495.78;125171;1103;104352;-82
2022/03/17 06:22:58;;;;;;;26.23;9.13;;;;;;;-1.70;51.01;102490.75;125380;1102;117713;-82
2022/03/17 06:28:31;;;;;;;21.83;8.97;;;;;;;-1.43;51.48;102502.41;124893;1102;104482;-80
2022/03/17 06:31:03;;;;;;;22.53;8.83;;;;;;;-1.33;51.77;102489.88;124803;1102;102495;-82
2022/03/17 06:33:37;;;;;;;22.60;8.60;;;;;;;-1.24;51.20;102490.93;124314;1102;104379;-80
2022/03/17 06:39:08;;;;;;;23.23;8.50;;;;;;;-1.10;51.45;102495.09;124431;1102;104227;-81
2022/03/17 06:41:40;;;;;;;24.33;8.87;;;;;;;-0.97;52.57;102507.70;124396;1102;104245;-79
2022/03/17 06:44:12;;;;;;;23.80;8.97;;;;;;;-0.78;52.12;102502.97;124110;1102;104220;-79
2022/03/17 06:46:46;;;;;;;19.20;7.93;;;;;;;-0.62;51.54;102505.64;123947;1102;103844;-80
2022/03/17 06:49:19;;;;;;;22.03;7.40;;;;;;;-0.58;51.21;102511.31;123417;1105;104245;-81
2022/03/17 06:52:03;;;;;;;20.05;7.50;;;;;;;-0.49;50.65;102515.67;124912;1102;104245;-81
2022/03/17 06:54:44;;;;;;;18.60;7.50;;;;;;;-0.42;50.87;102518.17;124901;1102;104341;-83
2022/03/17 06:57:22;;;;;;;20.60;8.17;;;;;;;-0.30;51.02;102519.54;124056;1102;104255;-82
2022/03/17 06:59:58;;;;;;;23.57;7.10;;;;;;;-0.13;51.14;102521.42;123502;1103;105489;-82
2022/03/17 07:02:31;;;;;;;17.95;7.22;;;;;;;-0.03;51.13;102519.12;123174;1105;104313;-83
2022/03/17 07:05:06;;;;;;;14.23;6.20;;;;;;;0.06;50.13;102519.20;124748;1102;104313;-82
2022/03/17 07:07:49;;;;;;;16.83;6.53;;;;;;;0.21;50.47;102512.23;124452;1102;102970;-81
2022/03/17 07:10:22;;;;;;;13.33;5.60;;;;;;;0.27;49.46;102518.06;123977;1102;104453;-81
2022/03/17 07:13:02;;;;;;;19.50;5.40;;;;;;;0.34;49.00;102511.89;124463;1102;104433;-82
2022/03/17 07:15:48;;;;;;;;;;;;;;;;;;;;;
2022/03/17 07:18:23;;;;;;;16.57;5.67;;;;;;;0.58;49.16;102520.46;124466;1102;104211;-84
2022/03/17 07:21:08;;;;;;;13.50;5.00;;;;;;;0.70;47.64;102516.62;123988;1100;104255;-82
2022/03/17 07:23:47;;;;;;;10.80;4.27;;;;;;;0.94;46.99;102512.27;124180;1102;101915;-82
2022/03/17 07:26:26;;;;;;;11.13;4.70;;;;;;;0.94;47.43;102520.02;124389;1099;104415;-82
2022/03/17 07:29:01;;;;;;;14.75;5.60;;;;;;;0.89;46.95;102524.70;124102;1099;104297;-81
2022/03/17 07:31:44;;;;;;;17.77;6.53;;;;;;;0.77;47.33;102525.97;124221;1102;104199;-81
2022/03/17 07:34:21;;;;;;;14.13;5.10;;;;;;;0.73;47.35;102510.88;124120;1099;104351;-81
2022/03/17 07:37:15;;;;;;;11.95;5.30;;;;;;;0.92;47.49;102522.45;123815;1098;104268;-80
2022/03/17 07:42:55;;;;;;;14.33;5.20;;;;;;;1.12;47.36;102511.61;124219;1099;104322;-80
2022/03/17 07:45:34;;;;;;;13.00;5.13;;;;;;;1.12;47.24;102505.53;124315;1099;104274;-80
2022/03/17 07:48:34;;;;;;;13.23;4.60;;;;;;;1.10;46.89;102515.71;124392;1099;104239;-80
2022/03/17 07:51:17;;;;;;;14.80;5.73;;;;;;;1.17;47.07;102507.86;124271;1102;104392;-81
2022/03/17 07:54:13;;;;;;;;;;;;;;;;;;;;;
2022/03/17 07:57:00;;;;;;;16.77;5.77;;;;;;;1.56;47.76;102509.30;123967;1102;104345;-79
2022/03/17 07:59:37;;;;;;;14.10;5.50;;;;;;;1.57;46.44;102506.87;123616;1102;104306;-78
2022/03/17 08:02:26;;;;;;;14.93;6.20;;;;;;;1.52;46.15;102509.72;124008;1102;104261;-81
2022/03/17 08:14:50;;;;;;;13.90;5.40;;;;;;;1.55;45.81;102515.22;124658;1102;104332;-81
2022/03/17 08:17:42;;;;;;;12.13;5.57;;;;;;;1.61;45.31;102502.91;124152;1102;104659;-80
2022/03/17 08:20:34;;;;;;;11.77;4.73;;;;;;;1.75;43.84;102506.94;124591;1099;104357;-81
2022/03/17 08:23:25;;;;;;;11.27;4.87;;;;;;;1.97;44.76;102505.77;123912;1099;104380;-83
2022/03/17 08:26:03;;;;;;;;;;;;;;;2.08;42.39;102493.92;123992;1099;104367;-82
2022/03/17 08:28:54;;;;;;;;;;;;;;;;;;;;;
2022/03/17 08:32:19;;;;;;;13.67;5.20;;;;;;;2.38;44.50;102500.37;125055;1099;104223;-83
2022/03/17 08:35:05;;;;;;;10.47;4.60;;;;;;;2.21;40.55;102508.13;125084;1099;104200;-82
2022/03/17 08:38:04;;;;;;;10.23;4.93;;;;;;;1.91;41.36;102507.73;124724;1102;104197;-82
2022/03/17 08:41:03;;;;;;;10.33;4.80;;;;;;;1.76;43.08;102500.98;124711;1102;104210;-84
2022/03/17 08:43:51;;;;;;;12.70;5.30;;;;;;;1.69;42.31;102504.61;124427;1102;104165;-84
2022/03/17 08:49:28;;;;;;;12.30;5.23;;;;;;;1.54;42.74;102484.91;124321;1102;104396;-82
2022/03/17 08:52:00;;;;;;;;;;;;;;;1.63;42.09;102485.86;124476;1102;103018;-80
2022/03/17 08:54:34;;;;;;;7.87;4.10;;;;;;;1.60;40.98;102491.63;123360;1099;104348;-81
2022/03/17 08:57:15;;;;;;;11.40;4.67;;;;;;;1.65;41.54;102489.52;124208;1099;104267;-82
2022/03/17 09:00:11;;;;;;;13.27;5.37;;;;;;;1.76;42.12;102483.80;125129;1099;104238;-81
2022/03/17 09:02:50;;;;;;;13.80;5.17;;;;;;;1.86;41.24;102490.82;125356;1099;104176;-83
2022/03/17 09:05:33;;;;;;;10.33;4.87;;;;;;;1.89;41.96;102492.82;124297;1099;104368;-81
2022/03/17 09:08:08;;;;;;;13.97;4.87;;;;;;;1.83;41.68;102489.61;124233;1099;104727;-83
2022/03/17 09:10:42;;;;;;;9.37;4.50;;;;;;;1.93;40.30;102488.12;124002;1102;104267;-82
2022/03/17 09:16:43;;;;;;;12.17;4.70;;;;;;;2.34;40.90;102482.70;123646;1102;104271;-82
2022/03/17 09:19:20;;;;;;;15.07;4.50;;;;;;;2.38;39.33;102471.87;123720;1100;104354;-82
2022/03/17 09:22:14;;;;;;;12.40;4.93;;;;;;;2.70;40.72;102479.36;124207;1100;104252;-82
2022/03/17 09:25:01;;;;;;;23.65;5.75;;;;;;;2.83;39.09;102490.16;124081;1099;104239;-82
2022/03/17 09:27:37;;;;;;;13.47;5.00;;;;;;;2.83;38.85;102497.03;123727;1099;104299;-79
2022/03/17 09:30:15;;;;;;;13.30;5.20;;;;;;;3.00;38.77;102485.73;123451;1099;104315;-81
2022/03/17 09:33:05;;;;;;;10.50;4.57;;;;;;;3.08;38.86;102483.88;123859;1099;104335;-82
2022/03/17 09:35:41;;;;;;;11.60;5.10;;;;;;;3.00;37.37;102488.32;123991;1099;104248;-82
2022/03/17 09:41:32;;;;;;;9.10;3.97;;;;;;;2.63;36.46;102488.21;124419;1102;104242;-81
2022/03/17 09:44:22;;;;;;;16.73;5.17;;;;;;;2.58;38.43;102480.73;124750;1099;104253;-82
2022/03/17 09:47:19;;;;;;;11.73;4.87;;;;;;;2.50;38.70;102478.27;124636;1099;104352;-83
2022/03/17 09:50:09;;;;;;;12.73;5.03;;;;;;;2.59;37.89;102495.53;123855;1099;104693;-83
2022/03/17 09:52:55;;;;;;;12.20;5.00;;;;;;;2.64;38.53;102483.93;124121;1099;104236;-83
2022/03/17 09:58:53;;;;;;;10.47;4.63;;;;;;;2.85;36.99;102485.13;124776;1099;104239;-81
2022/03/17 10:01:54;;;;;;;16.35;6.00;;;;;;;2.89;37.47;102489.86;124803;1099;104363;-83
2022/03/17 10:04:51;;;;;;;12.83;5.23;;;;;;;2.85;38.19;102501.62;124673;1099;104166;-80
2022/03/17 10:07:40;;;;;;;14.23;4.90;;;;;;;2.79;38.36;102490.64;124597;1099;104219;-80
2022/03/17 10:10:45;;;;;;;12.47;5.15;;;;;;;2.69;37.14;102495.66;124854;1099;104214;-81
2022/03/17 10:13:29;;;;;;;12.17;4.70;;;;;;;2.60;37.54;102487.91;124730;1099;104293;-81
2022/03/17 10:16:21;;;;;;;10.10;4.30;;;;;;;2.51;36.31;102489.58;124775;1099;104367;-82
2022/03/17 10:19:12;;;;;;;14.50;5.42;;;;;;;2.83;37.32;102486.66;124175;1099;104146;-81
2022/03/17 10:22:10;;;;;;;15.27;6.20;;;;;;;2.93;36.77;102494.59;124708;1099;104473;-81
2022/03/17 10:24:55;;;;;;;13.40;5.50;;;;;;;2.85;36.91;102487.72;124229;1099;104325;-84
2022/03/17 10:30:49;;;;;;;10.73;4.60;;;;;;;2.42;37.04;102493.84;124253;1099;104414;-84
2022/03/17 10:33:32;;;;;;;9.00;4.00;;;;;;;2.32;36.24;102495.50;125184;1099;104245;-85
2022/03/17 10:36:38;;;;;;;9.80;4.37;;;;;;;2.31;36.32;102487.58;124823;1099;104217;-83
2022/03/17 10:39:15;;;;;;;12.67;4.37;;;;;;;2.51;36.30;102482.71;124553;1099;104283;-85
2022/03/17 10:42:21;;;;;;;15.07;4.63;;;;;;;2.66;35.69;102493.67;124906;1099;104274;-84
2022/03/17 10:45:05;;;;;;;11.97;4.72;;;;;;;2.87;36.92;102494.89;124925;1099;104188;-82
2022/03/17 10:47:50;;;;;;;9.60;4.23;;;;;;;2.94;35.63;102483.44;124391;1099;107781;-82
2022/03/17 10:50:38;;;;;;;8.00;4.30;;;;;;;2.87;35.86;102483.62;124799;1099;104354;-84
2022/03/17 10:53:14;;;;;;;11.93;4.23;;;;;;;2.84;35.64;102476.44;124740;1099;104418;-84
2022/03/17 10:55:50;;;;;;;10.17;4.30;;;;;;;2.95;34.76;102481.78;124482;1099;104270;-82
2022/03/17 10:58:46;;;;;;;9.63;3.33;;;;;;;3.03;34.52;102473.96;124779;1099;104300;-83
2022/03/17 11:01:50;;;;;;;8.77;3.97;;;;;;;3.25;34.44;102460.48;124813;1099;104309;-82
2022/03/17 11:04:24;;;;;;;14.30;4.33;;;;;;;3.22;34.56;102473.16;124286;1099;104248;-83
2022/03/17 11:07:01;;;;;;;;;;;;;;;3.10;32.23;102475.50;124379;1098;104216;-83
2022/03/17 11:09:45;;;;;;;10.17;3.90;;;;;;;3.30;34.50;102472.20;125344;1099;104341;-85
2022/03/17 11:12:26;;;;;;;7.45;3.85;;;;;;;3.44;34.23;102470.94;125396;1099;104383;-83
2022/03/17 11:15:03;;;;;;;13.00;4.53;;;;;;;3.60;33.46;102470.75;125062;1099;104329;-84
2022/03/17 11:17:50;;;;;;;8.67;3.97;;;;;;;3.83;33.36;102451.22;125662;1099;102136;-84
2022/03/17 11:20:34;;;;;;;8.03;4.03;;;;;;;3.84;32.93;102463.45;125467;1099;104291;-84
2022/03/17 11:23:19;;;;;;;10.20;4.40;;;;;;;3.85;34.53;102445.42;125745;1099;104185;-84
2022/03/17 11:26:01;;;;;;;7.67;3.67;;;;;;;3.83;32.45;102462.52;125545;1099;104348;-83
2022/03/17 11:28:49;;;;;;;11.07;4.50;;;;;;;3.69;32.47;102463.80;126172;1098;107057;-84
2022/03/17 11:31:30;;;;;;;9.63;3.90;;;;;;;3.40;32.57;102463.66;125942;1099;104223;-84
2022/03/17 11:34:08;;;;;;;8.95;4.20;;;;;;;3.39;32.64;102467.91;125579;1099;104329;-85
2022/03/17 11:37:16;;;;;;;8.93;4.50;;;;;;;3.59;33.99;102468.91;124990;1099;104300;-84
2022/03/17 11:40:01;;;;;;;12.20;4.60;;;;;;;3.43;31.85;102463.95;125061;1099;105098;-86
2022/03/17 11:42:49;;;;;;;11.28;4.80;;;;;;;3.45;32.40;102471.88;125237;1099;104242;-84
2022/03/17 11:45:42;;;;;;;9.83;4.30;;;;;;;3.40;32.89;102445.48;124741;1099;104213;-82
2022/03/17 11:48:16;;;;;;;8.17;4.00;;;;;;;3.37;31.50;102447.78;125028;1099;104306;-80
2022/03/17 11:50:52;;;;;;;12.37;4.50;;;;;;;3.46;33.00;102440.88;124205;1099;104242;-80
2022/03/17 11:53:45;;;;;;;6.33;3.43;;;;;;;3.37;30.95;102455.58;124137;1099;104482;-81
2022/03/17 11:56:35;;;;;;;10.90;4.07;;;;;;;3.49;33.01;102435.98;124637;1098;104479;-81
2022/03/17 11:59:11;;;;;;;10.83;4.40;;;;;;;3.66;32.45;102437.59;124664;1099;104294;-80
2022/03/17 12:02:16;;;;;;;7.97;4.30;;;;;;;3.87;33.09;102420.49;124343;1099;104291;-82
2022/03/17 12:05:20;;;;;;;10.45;4.40;;;;;;;3.95;32.35;102426.41;124561;1099;102723;-83
2022/03/17 12:08:07;;;;;;;9.95;4.20;;;;;;;3.75;31.17;102430.63;124254;1099;104357;-83
2022/03/17 12:11:45;;;;;;;;;;;;;;;;;;;;;
2022/03/17 12:14:52;;;;;;;11.53;4.80;;;;;;;3.73;32.91;102439.07;124694;1099;104383;-80
2022/03/17 12:17:32;;;;;;;12.70;5.50;;;;;;;3.90;33.42;102441.55;124602;1099;104771;-82
2022/03/17 12:20:14;;;;;;;12.83;5.37;;;;;;;4.07;33.68;102431.84;123960;1099;104249;-80
2022/03/17 12:22:55;;;;;;;11.03;4.57;;;;;;;4.10;32.71;102426.92;123737;1100;104371;-81
2022/03/17 12:25:34;;;;;;;11.57;3.97;;;;;;;3.73;30.90;102439.07;123613;1102;104411;-82
2022/03/17 12:35:01;;;;;;;14.73;5.50;;;;;;;3.28;32.13;102452.99;123794;1099;104236;-83
2022/03/17 12:38:19;;;;;;;12.23;5.40;;;;;;;3.31;31.94;102448.10;123923;1099;104447;-82
2022/03/17 12:41:14;;;;;;;13.70;5.60;;;;;;;3.36;32.38;102438.16;124134;1099;104322;-83
2022/03/17 12:44:00;;;;;;;10.67;4.60;;;;;;;3.52;31.74;102433.68;123766;1099;104405;-80
2022/03/17 12:46:55;;;;;;;10.30;4.53;;;;;;;3.42;30.52;102449.13;124201;1099;104242;-83
2022/03/17 12:49:34;;;;;;;10.43;4.70;;;;;;;3.31;31.43;102449.80;124214;1099;105415;-81
2022/03/17 12:52:20;;;;;;;9.77;4.10;;;;;;;3.28;31.81;102462.47;123995;1099;104349;-81
2022/03/17 12:55:03;;;;;;;12.73;4.83;;;;;;;3.34;32.46;102439.70;123960;1099;104389;-82
2022/03/17 12:57:43;;;;;;;8.03;4.07;;;;;;;3.38;32.25;102444.41;124057;1099;104411;-83
2022/03/17 13:00:23;;;;;;;9.03;3.83;;;;;;;3.45;31.75;102441.64;124563;1099;104440;-82
2022/03/17 13:02:59;;;;;;;9.13;3.73;;;;;;;3.48;31.38;102434.14;123763;1099;104338;-83
2022/03/17 13:08:45;;;;;;;9.73;4.03;;;;;;;3.27;30.50;102455.44;124279;1099;104235;-81
2022/03/17 13:14:25;;;;;;;9.18;4.08;;;;;;;3.20;31.40;102456.55;124802;1099;104239;-80